Time;durP1;ratioP1;P1;durP2;ratioP2;P2;SDS_P1;SDS_P2;PMS_P1;PMS_P2;Temp;Humidity;BMP_temperature;BMP_pressure;BME280_temperature;BME280_humidity;BME280_pressure;Samples;Min_cycle;Max_cycle;Signal;HPM_P1;HPM_P2
2022/12/20 00:02:10;;;;;;;33.07;16.53;;;-1.10;99.90;;;-1.36;72.61;100998.41;4936044;28;20206;-74
2022/12/20 00:04:40;;;;;;;36.43;17.60;;;-1.00;99.90;;;-1.31;72.54;100999.53;4927784;29;20218;-74
2022/12/20 00:07:11;;;;;;;33.67;18.07;;;-1.00;99.90;;;-1.29;72.68;100992.88;4929439;28;20240;-74
2022/12/20 00:09:40;;;;;;;34.40;17.80;;;-1.00;99.90;;;-1.28;73.19;100984.50;4930446;29;20257;-74
2022/12/20 00:12:09;;;;;;;35.60;17.70;;;-1.00;99.90;;;-1.25;73.38;100979.63;4925051;29;20206;-77
2022/12/20 00:14:37;;;;;;;34.40;16.90;;;-0.90;99.90;;;-1.23;73.67;100970.44;4926985;29;20248;-74
2022/12/20 00:17:06;;;;;;;33.87;17.00;;;-0.90;99.90;;;-1.22;73.95;100979.75;4926844;29;20206;-75
2022/12/20 00:19:34;;;;;;;31.67;16.37;;;-0.90;99.90;;;-1.20;74.19;100970.59;4928739;29;20213;-74
2022/12/20 00:22:06;;;;;;;33.03;18.30;;;-0.90;99.90;;;-1.19;74.27;100959.69;4927071;29;20210;-74
2022/12/20 00:24:34;;;;;;;34.17;17.70;;;-0.90;99.90;;;-1.18;74.45;100953.81;4927691;29;20570;-74
2022/12/20 00:27:04;;;;;;;36.40;17.57;;;-0.80;99.90;;;-1.16;74.50;100964.91;4927919;29;20690;-78
2022/12/20 00:29:33;;;;;;;30.77;16.00;;;-0.80;99.90;;;-1.14;74.95;100957.38;4930310;29;20558;-74
2022/12/20 00:32:02;;;;;;;34.57;17.63;;;-0.80;99.90;;;-1.13;75.10;100941.44;4926890;29;20269;-74
2022/12/20 00:34:30;;;;;;;36.47;17.80;;;-0.80;99.90;;;-1.12;75.08;100941.50;4926552;29;20316;-74
2022/12/20 00:36:59;;;;;;;34.53;17.80;;;-0.70;99.90;;;-1.04;75.23;100949.47;4934759;29;21000;-75
2022/12/20 00:39:29;;;;;;;34.57;18.93;;;-0.70;99.90;;;-0.99;75.70;100953.97;4929782;29;20205;-75
2022/12/20 00:42:00;;;;;;;31.57;15.97;;;-0.70;99.90;;;-0.93;75.59;100952.53;4932081;29;20221;-74
2022/12/20 00:44:29;;;;;;;32.70;17.13;;;-0.60;99.90;;;-0.86;75.46;100946.97;4940405;29;20659;-74
2022/12/20 00:46:58;;;;;;;30.47;16.43;;;-0.60;99.90;;;-0.85;75.80;100941.09;4935646;29;20221;-75
2022/12/20 00:49:26;;;;;;;34.90;17.37;;;-0.60;99.90;;;-0.81;75.84;100943.00;4938870;28;20266;-75
2022/12/20 00:51:55;;;;;;;32.27;16.30;;;-0.50;99.90;;;-0.81;75.94;100938.81;4920219;29;20221;-75
2022/12/20 00:54:23;;;;;;;34.40;17.80;;;-0.50;99.90;;;-0.78;76.05;100933.88;4929696;29;20226;-73
2022/12/20 00:56:53;;;;;;;35.83;17.77;;;-0.50;99.90;;;-0.71;76.27;100935.06;4932530;29;20213;-74
2022/12/20 00:59:23;;;;;;;32.47;17.83;;;-0.50;99.90;;;-0.68;76.30;100936.88;4927096;28;20206;-74
2022/12/20 01:01:52;;;;;;;31.33;16.37;;;-0.40;99.90;;;-0.71;76.55;100930.00;4926974;29;20615;-74
2022/12/20 01:04:21;;;;;;;32.43;17.27;;;-0.40;99.90;;;-0.63;76.68;100927.81;4918125;29;20217;-74
2022/12/20 01:06:49;;;;;;;29.40;15.87;;;-0.30;99.90;;;-0.59;76.82;100927.19;4928701;29;20217;-73
2022/12/20 01:09:18;;;;;;;29.73;16.53;;;-0.30;99.90;;;-0.57;77.57;100923.94;4926997;29;20364;-72
2022/12/20 01:11:46;;;;;;;30.13;16.67;;;-0.20;99.90;;;-0.56;77.72;100914.66;4918628;28;20490;-74
2022/12/20 01:14:18;;;;;;;29.43;15.53;;;-0.30;99.90;;;-0.51;77.67;100919.16;4930011;29;20301;-74
2022/12/20 01:16:48;;;;;;;32.50;16.70;;;-0.20;99.90;;;-0.49;78.16;100917.56;4929718;29;20582;-73
2022/12/20 01:19:18;;;;;;;28.77;15.77;;;-0.20;99.90;;;-0.46;78.64;100915.97;4932184;29;20590;-72
2022/12/20 01:21:47;;;;;;;33.47;17.43;;;-0.20;99.90;;;-0.43;78.83;100922.06;4930126;28;20211;-75
2022/12/20 01:24:20;;;;;;;31.63;16.63;;;-0.10;99.90;;;-0.38;78.68;100909.59;4927257;29;20213;-73
2022/12/20 01:26:48;;;;;;;28.70;15.57;;;-0.10;99.90;;;-0.34;79.31;100916.53;4930812;28;20205;-73
2022/12/20 01:29:19;;;;;;;30.97;15.93;;;0.00;99.90;;;-0.31;79.52;100912.50;4920622;29;20213;-74
2022/12/20 01:31:50;;;;;;;30.80;16.57;;;0.00;99.90;;;-0.30;79.51;100914.22;4935533;29;20396;-74
2022/12/20 01:34:19;;;;;;;32.87;16.73;;;0.00;99.90;;;-0.26;79.82;100900.03;4916173;29;22118;-74
2022/12/20 01:36:48;;;;;;;28.83;16.83;;;0.00;99.90;;;-0.24;80.24;100888.31;4933874;28;20206;-74
2022/12/20 01:39:18;;;;;;;30.77;15.93;;;0.00;99.90;;;-0.19;79.60;100893.59;4932158;29;20237;-75
2022/12/20 01:41:47;;;;;;;28.07;14.60;;;0.10;99.90;;;-0.17;80.19;100869.22;4922501;29;20716;-74
2022/12/20 01:45:08;;;;;;;32.93;16.53;;;0.10;99.90;;;-0.18;80.25;100853.16;4926825;29;20266;-74
2022/12/20 01:47:37;;;;;;;28.97;15.57;;;0.10;99.90;;;-0.17;79.96;100865.00;4906235;29;20207;-77
2022/12/20 01:50:08;;;;;;;26.67;15.17;;;0.10;99.90;;;-0.14;80.87;100862.63;4926145;29;20678;-75
2022/12/20 01:52:43;;;;;;;29.77;15.20;;;0.10;99.90;;;-0.15;81.20;100863.41;4927950;29;20210;-76
2022/12/20 01:55:18;;;;;;;29.53;16.50;;;0.20;99.90;;;-0.11;81.30;100854.25;4929282;29;20230;-75
2022/12/20 01:57:53;;;;;;;29.70;15.60;;;0.20;99.90;;;-0.10;81.49;100841.69;4930713;29;20210;-74
2022/12/20 02:00:23;;;;;;;27.50;14.77;;;0.20;99.90;;;-0.07;81.93;100836.75;4932725;28;20603;-75
2022/12/20 02:02:52;;;;;;;31.53;15.37;;;0.20;99.90;;;-0.05;81.45;100836.81;4929907;29;20222;-76
2022/12/20 02:05:23;;;;;;;27.40;15.30;;;0.30;99.90;;;-0.01;81.81;100829.41;4936617;29;20226;-75
2022/12/20 02:07:56;;;;;;;27.33;15.70;;;0.30;99.90;;;0.02;81.81;100830.34;4922195;29;20715;-74
2022/12/20 02:10:41;;;;;;;28.50;15.60;;;0.30;99.90;;;0.03;81.97;100822.81;4922044;29;20667;-74
2022/12/20 02:13:31;;;;;;;27.83;16.50;;;0.40;99.90;;;0.09;81.81;100827.28;4935382;29;20205;-75
2022/12/20 02:16:04;;;;;;;31.17;16.20;;;0.40;99.90;;;0.11;81.72;100825.66;4928883;29;20642;-75
2022/12/20 02:18:43;;;;;;;29.97;15.73;;;0.40;99.90;;;0.14;81.72;100821.59;4936542;29;20204;-75
2022/12/20 02:21:23;;;;;;;28.90;14.97;;;0.40;99.90;;;0.18;81.15;100822.59;4937295;29;20214;-74
2022/12/20 02:24:43;;;;;;;26.00;14.63;;;0.40;99.90;;;0.18;81.64;100813.31;4933720;29;20217;-73
2022/12/20 02:27:45;;;;;;;28.43;15.20;;;0.50;99.90;;;0.18;81.51;100810.78;4913882;29;20214;-75
2022/12/20 02:30:19;;;;;;;25.70;15.07;;;0.50;99.90;;;0.20;81.80;100806.66;4933230;29;20590;-76
2022/12/20 02:32:59;;;;;;;27.33;15.53;;;0.50;99.90;;;0.21;81.86;100823.59;4927315;29;20293;-73
2022/12/20 02:35:32;;;;;;;29.43;15.43;;;0.50;99.90;;;0.21;81.75;100807.53;4927892;29;20246;-73
2022/12/20 02:38:04;;;;;;;27.67;15.33;;;0.50;99.90;;;0.21;81.66;100807.53;4918917;29;20245;-73
2022/12/20 02:40:40;;;;;;;30.93;15.57;;;0.50;99.90;;;0.23;82.42;100811.88;4933164;29;20664;-73
2022/12/20 02:45:59;;;;;;;32.17;15.47;;;0.50;99.90;;;0.27;82.43;100800.19;4932279;29;20232;-74
2022/12/20 02:48:32;;;;;;;29.50;14.10;;;0.60;99.90;;;0.35;82.58;100808.97;4929177;29;20234;-74
2022/12/20 02:51:03;;;;;;;25.77;13.47;;;0.60;99.90;;;0.34;82.77;100812.31;4925191;29;20202;-74
2022/12/20 02:53:32;;;;;;;26.73;14.50;;;0.60;99.90;;;0.34;82.70;100808.94;4940873;29;20197;-72
2022/12/20 02:56:14;;;;;;;25.00;14.30;;;0.60;99.90;;;0.35;82.99;100806.44;4945942;28;20226;-74
2022/12/20 02:58:52;;;;;;;26.97;13.97;;;0.60;99.90;;;0.36;82.94;100790.44;4933058;29;20656;-74
2022/12/20 03:01:28;;;;;;;28.13;14.37;;;0.70;99.90;;;0.40;83.37;100788.88;4926133;29;20590;-74
2022/12/20 03:04:01;;;;;;;22.70;14.70;;;0.70;99.90;;;0.42;82.94;100782.22;4935304;29;20217;-74
2022/12/20 03:06:34;;;;;;;24.73;13.73;;;0.70;99.90;;;0.46;83.26;100786.63;4933363;29;20214;-74
2022/12/20 03:09:03;;;;;;;24.33;14.03;;;0.80;99.90;;;0.50;83.01;100785.06;4920942;29;20634;-73
2022/12/20 03:11:31;;;;;;;24.10;14.33;;;0.80;99.90;;;0.50;83.07;100774.94;4936941;29;20210;-74
2022/12/20 03:14:00;;;;;;;26.33;14.17;;;0.80;99.90;;;0.53;82.89;100785.19;4920572;29;20218;-76
2022/12/20 03:16:29;;;;;;;24.03;13.97;;;0.80;99.90;;;0.57;83.01;100787.06;4929791;29;20329;-76
2022/12/20 03:18:58;;;;;;;24.43;14.53;;;0.80;99.90;;;0.59;82.95;100782.88;4935826;29;20582;-74
2022/12/20 03:21:27;;;;;;;20.60;12.00;;;0.80;99.90;;;0.59;83.06;100781.25;4928756;29;20214;-75
2022/12/20 03:23:55;;;;;;;23.67;13.37;;;0.80;99.90;;;0.63;83.32;100779.72;4933501;29;20651;-76
2022/12/20 03:26:31;;;;;;;27.03;14.43;;;0.90;99.90;;;0.64;83.30;100787.34;4922690;29;20226;-74
2022/12/20 03:29:01;;;;;;;25.33;13.83;;;0.90;99.90;;;0.70;83.28;100799.41;4929318;29;20692;-75
2022/12/20 03:31:31;;;;;;;23.05;13.35;;;0.90;99.90;;;0.70;82.88;100785.09;4977278;23;20329;-72
2022/12/20 03:34:02;;;;;;;26.60;14.43;;;0.90;99.90;;;0.74;83.11;100791.16;4972883;28;20221;-74
2022/12/20 03:36:31;;;;;;;23.53;14.13;;;1.00;99.90;;;0.76;83.14;100783.59;5073321;23;20225;-71
2022/12/20 03:49:37;;;;;;;22.27;12.07;;;1.00;99.90;;;0.84;83.34;100774.59;5146579;22;1326577;-74
2022/12/20 03:52:05;;;;;;;24.53;13.23;;;1.10;99.90;;;0.85;82.83;100772.13;5105096;28;20201;-74
2022/12/20 03:54:34;;;;;;;21.93;12.57;;;1.10;99.90;;;0.84;82.93;100778.00;5122260;22;20216;-74
2022/12/20 03:57:03;;;;;;;23.37;13.87;;;1.10;99.90;;;0.90;83.32;100783.31;5097686;28;20650;-78
2022/12/20 03:59:32;;;;;;;22.57;12.83;;;1.10;99.90;;;0.90;83.50;100768.09;5106204;28;20220;-76
2022/12/20 04:02:03;;;;;;;22.27;12.83;;;1.10;99.90;;;0.93;83.41;100773.28;5080905;28;20213;-81
2022/12/20 04:04:32;;;;;;;29.17;13.77;;;1.20;99.90;;;0.93;83.26;100770.75;5079648;28;20224;-74
2022/12/20 04:07:03;;;;;;;21.27;12.97;;;1.20;99.90;;;0.94;82.89;100775.03;5064612;28;20453;-73
2022/12/20 04:09:31;;;;;;;24.83;14.27;;;1.20;99.90;;;0.95;83.06;100770.81;5054573;28;20201;-74
2022/12/20 04:12:01;;;;;;;27.67;13.03;;;1.20;99.90;;;0.95;83.27;100781.81;5067912;28;20631;-76
2022/12/20 04:14:30;;;;;;;26.37;12.50;;;1.20;99.90;;;0.95;83.00;100780.94;5065657;28;20198;-77
2022/12/20 04:17:00;;;;;;;23.45;13.45;;;1.20;99.90;;;0.96;83.29;100763.28;5064982;28;20213;-75
2022/12/20 04:19:29;;;;;;;21.73;12.87;;;1.20;99.90;;;1.00;83.24;100768.47;5067609;28;20210;-77
2022/12/20 04:22:02;;;;;;;24.50;12.90;;;1.20;99.90;;;1.01;83.29;100745.69;5071970;28;20205;-75
2022/12/20 04:24:33;;;;;;;20.97;11.63;;;1.20;99.90;;;1.04;83.00;100744.94;5068555;28;20614;-75
2022/12/20 04:27:04;;;;;;;24.53;12.40;;;1.20;99.90;;;1.02;83.06;100742.31;5061909;28;20243;-74
2022/12/20 04:32:04;;;;;;;22.37;12.83;;;1.30;99.90;;;1.03;82.64;100733.94;5073189;28;20221;-75
2022/12/20 04:34:33;;;;;;;23.80;12.23;;;1.30;99.90;;;1.05;82.41;100739.06;5073557;28;20190;-82
2022/12/20 04:37:02;;;;;;;19.97;12.13;;;1.30;99.90;;;1.03;82.61;100733.03;5067318;28;20214;-79
2022/12/20 04:39:31;;;;;;;23.63;12.13;;;1.30;99.90;;;1.04;82.43;100742.41;5068588;28;20325;-78
2022/12/20 04:41:59;;;;;;;19.27;11.60;;;1.30;99.90;;;1.02;82.71;100744.88;5074892;28;20201;-81
2022/12/20 04:44:28;;;;;;;21.53;13.27;;;1.30;99.90;;;1.00;82.35;100758.31;5069167;28;20212;-79
2022/12/20 04:46:56;;;;;;;25.00;12.97;;;1.30;99.90;;;1.00;82.62;100749.03;5079475;28;20220;-71
2022/12/20 04:49:26;;;;;;;20.27;11.80;;;1.30;99.90;;;1.00;82.54;100759.19;5070548;28;20267;-73
2022/12/20 04:53:45;;;;;;;22.87;12.47;;;1.30;99.90;;;0.99;82.48;100754.03;5062461;28;20198;-72
2022/12/20 04:54:45;;;;;;;19.23;10.93;;;1.30;99.90;;;0.98;82.65;100760.78;5062681;28;20209;-72
2022/12/20 04:57:14;;;;;;;22.60;12.03;;;1.20;99.90;;;0.96;82.68;100763.28;5058611;28;20203;-73
2022/12/20 04:59:43;;;;;;;23.70;13.00;;;1.30;99.90;;;0.98;82.86;100760.78;5064426;28;20679;-73
2022/12/20 05:02:11;;;;;;;21.57;12.23;;;1.30;99.90;;;1.00;82.55;100750.72;5083808;28;20201;-72
2022/12/20 05:04:40;;;;;;;23.50;12.27;;;1.30;99.90;;;1.05;82.76;100756.81;5083253;28;20208;-71
2022/12/20 05:07:10;;;;;;;26.03;14.03;;;1.30;99.90;;;1.05;82.81;100744.13;5081941;28;20212;-72
2022/12/20 05:09:39;;;;;;;21.67;12.10;;;1.30;99.90;;;1.05;82.83;100731.44;5086598;28;20245;-71
2022/12/20 05:12:09;;;;;;;22.20;12.37;;;1.30;99.90;;;1.11;82.69;100726.59;5065646;28;20209;-72
2022/12/20 05:14:39;;;;;;;25.93;12.77;;;1.30;99.90;;;1.11;82.60;100731.69;5069899;28;20303;-74
2022/12/20 05:17:09;;;;;;;19.90;12.00;;;1.30;99.90;;;1.11;82.56;100726.59;5070305;28;20201;-72
2022/12/20 05:19:37;;;;;;;21.83;12.40;;;1.30;99.90;;;1.14;82.32;100726.69;5068418;28;20220;-76
2022/12/20 05:27:55;;;;;;;20.30;11.67;;;1.40;99.90;;;1.20;82.17;100724.38;5055118;28;20285;-76
2022/12/20 05:30:25;;;;;;;23.27;11.77;;;1.40;99.90;;;1.22;82.50;100727.88;5067261;28;20253;-75
2022/12/20 05:32:54;;;;;;;18.93;12.00;;;1.50;99.90;;;1.25;82.63;100717.81;5060239;28;20698;-78
2022/12/20 05:35:22;;;;;;;19.70;11.57;;;1.50;99.90;;;1.24;82.19;100707.59;5066191;28;20224;-75
2022/12/20 05:37:51;;;;;;;23.57;12.10;;;1.50;99.90;;;1.28;82.28;100714.53;5072982;28;20206;-74
2022/12/20 05:40:19;;;;;;;21.40;12.07;;;1.50;99.90;;;1.28;81.90;100705.22;5054639;28;20274;-76
2022/12/20 05:42:48;;;;;;;22.07;12.33;;;1.50;99.90;;;1.31;82.12;100709.56;5073085;28;20209;-75
2022/12/20 05:45:18;;;;;;;18.03;10.57;;;1.50;99.90;;;1.34;81.84;100714.75;5069433;28;20205;-75
2022/12/20 05:47:46;;;;;;;18.67;11.47;;;1.50;99.90;;;1.33;81.78;100729.13;5070617;28;20209;-74
2022/12/20 05:50:16;;;;;;;21.40;11.63;;;1.50;99.90;;;1.34;81.76;100727.44;5064916;28;20201;-75
2022/12/20 05:52:46;;;;;;;21.57;11.67;;;1.60;99.90;;;1.31;82.08;100720.56;5067815;28;20623;-76
2022/12/20 05:55:15;;;;;;;19.53;11.67;;;1.50;99.90;;;1.37;81.77;100730.09;5068406;28;20711;-74
2022/12/20 05:57:44;;;;;;;23.73;11.20;;;1.60;99.90;;;1.38;81.71;100731.81;5063965;28;20288;-75
2022/12/20 06:00:15;;;;;;;19.87;11.73;;;1.60;99.90;;;1.39;81.47;100726.78;5062042;28;20229;-74
2022/12/20 06:02:45;;;;;;;22.63;11.63;;;1.60;99.90;;;1.43;82.20;100726.09;5059087;28;20659;-74
2022/12/20 06:05:15;;;;;;;19.80;11.63;;;1.60;99.90;;;1.45;81.64;100729.56;5069809;28;20205;-72
2022/12/20 06:07:45;;;;;;;21.97;11.80;;;1.70;99.90;;;1.47;81.36;100718.59;5077552;28;20198;-70
2022/12/20 06:10:13;;;;;;;18.27;11.57;;;1.70;99.90;;;1.46;81.77;100715.19;5075017;28;20202;-71
2022/12/20 06:12:42;;;;;;;18.97;11.03;;;1.70;99.90;;;1.50;81.35;100721.25;5077820;28;20209;-74
2022/12/20 06:15:14;;;;;;;18.13;10.80;;;1.70;99.90;;;1.52;81.55;100722.16;5080628;28;20775;-76
2022/12/20 06:17:46;;;;;;;20.87;11.93;;;1.70;99.90;;;1.52;81.11;100717.09;5073757;28;20197;-72
2022/12/20 06:20:17;;;;;;;19.00;11.10;;;1.70;99.90;;;1.52;81.20;100724.72;5079530;28;20229;-71
2022/12/20 06:22:46;;;;;;;20.87;11.90;;;1.70;99.90;;;1.52;81.37;100720.50;5055920;28;20210;-74
2022/12/20 06:25:15;;;;;;;20.20;11.27;;;1.70;99.90;;;1.52;81.09;100722.16;5065631;28;20568;-74
2022/12/20 06:27:43;;;;;;;24.40;11.83;;;1.70;99.90;;;1.55;80.96;100724.81;5069481;28;20205;-72
2022/12/20 06:30:16;;;;;;;23.50;11.63;;;1.70;99.90;;;1.57;80.73;100728.28;5068789;28;20237;-74
2022/12/20 06:32:50;;;;;;;21.33;11.33;;;1.70;99.90;;;1.55;80.77;100729.91;5064362;28;20209;-72
2022/12/20 06:35:19;;;;;;;19.30;10.97;;;1.80;99.90;;;1.56;80.96;100726.53;5061924;28;20272;-72
2022/12/20 06:37:47;;;;;;;17.57;10.90;;;1.70;99.90;;;1.60;80.84;100741.09;5320620;22;20532;-68
2022/12/20 06:40:18;;;;;;;21.13;11.77;;;1.80;99.90;;;1.60;80.65;100734.31;5065377;28;20232;-72
2022/12/20 06:42:48;;;;;;;21.90;14.97;;;1.80;99.90;;;1.60;80.49;100728.38;5065167;28;20456;-72
2022/12/20 06:45:17;;;;;;;21.50;12.87;;;1.70;99.90;;;1.60;80.40;100728.38;5065665;28;20193;-74
2022/12/20 06:47:46;;;;;;;18.40;11.57;;;1.70;99.90;;;1.60;80.22;100720.75;5046756;28;20217;-74
2022/12/20 06:50:15;;;;;;;19.47;11.70;;;1.70;99.90;;;1.62;80.42;100726.75;5049547;28;20205;-74
2022/12/20 06:52:44;;;;;;;21.08;14.80;;;1.80;99.90;;;1.62;80.28;100731.81;5048078;28;20529;-71
2022/12/20 06:55:12;;;;;;;24.00;12.93;;;1.80;99.90;;;1.66;80.17;100733.69;5045702;28;20241;-71
2022/12/20 06:57:41;;;;;;;19.90;11.60;;;1.80;99.90;;;1.68;80.18;100734.59;5049071;28;20248;-70
2022/12/20 07:00:12;;;;;;;24.98;15.38;;;1.80;99.90;;;1.69;79.66;100733.78;5056941;28;20479;-71
2022/12/20 07:02:40;;;;;;;18.03;11.47;;;1.80;99.90;;;1.75;79.55;100744.16;5050038;28;20206;-72
2022/12/20 07:05:13;;;;;;;20.70;11.03;;;1.80;99.90;;;1.78;79.35;100739.19;5053422;28;20210;-71
2022/12/20 07:07:41;;;;;;;20.70;12.00;;;1.90;99.90;;;1.80;78.95;100736.69;5059028;28;20194;-74
2022/12/20 07:10:13;;;;;;;19.80;12.13;;;1.90;99.90;;;1.83;78.88;100742.75;5060524;28;20210;-69
2022/12/20 07:12:42;;;;;;;21.57;12.30;;;2.00;99.90;;;1.89;78.68;100745.50;5052990;28;20199;-71
2022/12/20 07:15:16;;;;;;;20.13;11.53;;;2.00;99.90;;;1.93;79.00;100744.81;5051135;28;20655;-72
2022/12/20 07:17:44;;;;;;;18.00;11.70;;;2.00;99.90;;;1.95;78.49;100734.69;5060632;28;20216;-71
2022/12/20 07:20:15;;;;;;;19.53;10.83;;;2.00;99.90;;;1.97;78.51;100743.22;5054455;28;20600;-69
2022/12/20 07:22:48;;;;;;;19.50;11.40;;;2.10;99.90;;;1.97;77.90;100737.28;5053698;28;20549;-70
2022/12/20 07:25:17;;;;;;;20.47;11.70;;;2.10;99.90;;;1.96;77.77;100733.03;5049226;28;20206;-70
2022/12/20 07:27:48;;;;;;;24.10;12.07;;;2.10;99.90;;;1.99;77.73;100730.56;5059693;28;20741;-71
2022/12/20 07:30:18;;;;;;;21.63;11.90;;;2.10;99.90;;;2.04;77.86;100735.00;5061242;28;20209;-71
2022/12/20 07:32:47;;;;;;;18.93;11.53;;;2.20;99.90;;;2.05;77.61;100728.25;5053350;28;20225;-72
2022/12/20 07:35:17;;;;;;;20.27;11.87;;;2.20;99.90;;;2.09;77.49;100737.69;5056696;28;20260;-68
2022/12/20 07:37:45;;;;;;;21.13;12.70;;;2.20;99.90;;;2.11;77.43;100733.53;5049253;28;20201;-70
2022/12/20 07:40:15;;;;;;;23.97;12.17;;;2.30;99.90;;;2.13;77.01;100737.84;5048737;28;20715;-72
2022/12/20 07:42:45;;;;;;;24.77;13.17;;;2.30;99.90;;;2.17;76.90;100739.69;5048367;28;20651;-69
2022/12/20 07:45:16;;;;;;;21.27;12.17;;;2.30;99.90;;;2.17;76.77;100734.63;5049592;28;20210;-72
2022/12/20 07:47:45;;;;;;;21.93;12.43;;;2.40;99.90;;;2.22;76.47;100734.75;5048822;28;20213;-72
2022/12/20 07:50:14;;;;;;;27.30;12.60;;;2.50;99.90;;;2.25;76.61;100726.38;5045894;28;20754;-73
2022/12/20 07:52:49;;;;;;;22.70;12.20;;;2.40;99.90;;;2.28;76.21;100723.91;5044473;28;20209;-73
2022/12/20 07:55:19;;;;;;;23.90;13.07;;;2.40;99.90;;;2.30;75.78;100728.25;5047718;28;20254;-72
2022/12/20 07:57:53;;;;;;;22.70;12.37;;;2.50;99.90;;;2.34;75.52;100740.25;5060376;28;20208;-72
2022/12/20 08:00:22;;;;;;;23.17;12.43;;;2.50;99.90;;;2.37;75.55;100737.81;5048137;28;20754;-71
2022/12/20 08:02:56;;;;;;;22.37;12.53;;;2.50;99.90;;;2.41;75.83;100733.69;5052994;28;20206;-73
2022/12/20 08:05:25;;;;;;;22.43;12.70;;;2.50;99.90;;;2.44;74.91;100735.47;5054712;28;20221;-67
2022/12/20 08:07:58;;;;;;;25.07;12.03;;;2.60;99.90;;;2.43;75.16;100734.59;5049773;28;20217;-71
2022/12/20 08:10:29;;;;;;;21.63;11.90;;;2.60;99.90;;;2.45;74.84;100740.59;5054662;28;20206;-72
2022/12/20 08:12:58;;;;;;;22.00;11.73;;;2.60;99.90;;;2.49;74.87;100752.59;5041791;28;20260;-72
2022/12/20 08:15:29;;;;;;;25.20;12.37;;;2.70;99.90;;;2.48;74.25;100740.69;5045615;28;20202;-71
2022/12/20 08:17:57;;;;;;;25.23;12.80;;;2.60;99.90;;;2.51;74.89;100732.31;5044234;28;20268;-71
2022/12/20 08:20:26;;;;;;;22.93;12.70;;;2.70;99.90;;;2.54;74.02;100724.75;5044417;28;20315;-71
2022/12/20 08:22:56;;;;;;;25.77;13.03;;;2.70;99.90;;;2.52;74.02;100726.41;5054106;28;20256;-72
2022/12/20 08:25:25;;;;;;;24.07;13.03;;;2.70;99.90;;;2.56;74.38;100733.31;5071303;28;20214;-71
2022/12/20 08:27:54;;;;;;;20.73;11.53;;;2.70;99.90;;;2.55;74.39;100727.38;5082973;28;20418;-76
2022/12/20 08:30:23;;;;;;;19.63;11.47;;;2.70;99.90;;;2.55;73.41;100729.91;5069555;28;20182;-71
2022/12/20 08:32:51;;;;;;;21.63;11.60;;;2.70;99.90;;;2.59;73.50;100730.88;5074332;28;20236;-69
2022/12/20 08:35:22;;;;;;;23.67;12.90;;;2.70;99.90;;;2.61;73.11;100716.50;5076110;28;20338;-70
2022/12/20 08:37:52;;;;;;;21.30;12.67;;;2.80;99.90;;;2.62;73.29;100715.72;5100738;22;20235;-72
2022/12/20 08:40:22;;;;;;;24.07;12.17;;;2.80;99.90;;;2.64;72.93;100725.09;5052715;28;20501;-73
2022/12/20 08:42:50;;;;;;;23.23;12.97;;;2.80;99.90;;;2.66;73.03;100720.94;5050239;28;20639;-71
2022/12/20 08:45:19;;;;;;;26.30;13.20;;;2.90;99.90;;;2.67;72.66;100719.25;5053372;28;20717;-71
2022/12/20 08:47:47;;;;;;;20.67;12.37;;;2.80;99.90;;;2.70;72.94;100715.94;5053672;28;20206;-73
2022/12/20 08:50:16;;;;;;;25.13;12.27;;;2.90;99.90;;;2.73;72.67;100726.22;5049051;28;20873;-72
2022/12/20 08:52:44;;;;;;;24.37;12.50;;;3.00;99.90;;;2.80;72.89;100723.91;5048766;28;20275;-70
2022/12/20 08:55:13;;;;;;;21.17;12.30;;;3.00;99.90;;;2.86;72.31;100715.56;5054141;28;20209;-72
2022/12/20 08:57:43;;;;;;;19.03;11.40;;;3.10;99.90;;;2.92;72.47;100713.22;5050479;28;20263;-72
2022/12/20 09:00:13;;;;;;;22.13;12.97;;;3.10;99.90;;;2.99;71.99;100715.13;5069706;28;20229;-72
2022/12/20 09:02:42;;;;;;;21.30;13.17;;;3.20;99.90;;;3.03;71.32;100721.19;5055153;28;20198;-74
2022/12/20 09:05:10;;;;;;;22.97;12.37;;;3.20;99.90;;;3.13;70.93;100729.16;5069431;28;20297;-73
2022/12/20 09:07:39;;;;;;;23.87;13.40;;;3.30;99.90;;;3.20;70.86;100721.66;5070785;28;20209;-73
2022/12/20 09:10:09;;;;;;;23.43;13.43;;;3.40;99.90;;;3.27;70.14;100721.03;5083767;28;20192;-71
2022/12/20 09:12:39;;;;;;;22.80;12.93;;;3.40;99.90;;;3.34;70.26;100718.69;5064593;28;20238;-73
2022/12/20 09:15:10;;;;;;;23.43;14.07;;;3.50;99.90;;;3.43;70.11;100713.03;5069891;28;20266;-74
2022/12/20 09:17:39;;;;;;;28.63;13.97;;;3.60;99.90;;;3.59;70.13;100711.75;5089747;28;20193;-71
2022/12/20 09:20:09;;;;;;;23.57;13.37;;;3.80;99.90;;;3.72;68.95;100713.81;5094796;28;20217;-71
2022/12/20 09:22:38;;;;;;;22.90;12.93;;;3.90;99.90;;;3.83;69.05;100712.41;5092223;28;20193;-73
2022/12/20 09:25:09;;;;;;;23.23;13.27;;;4.00;99.90;;;4.01;68.27;100700.94;5091468;28;20213;-72
2022/12/20 09:27:38;;;;;;;23.53;13.23;;;4.20;99.90;;;4.28;67.42;100709.31;5098345;28;20185;-71
2022/12/20 09:30:09;;;;;;;22.90;13.17;;;4.40;99.90;;;4.64;66.71;100712.69;5090302;28;20623;-73
2022/12/20 09:32:38;;;;;;;23.30;13.07;;;4.80;99.90;;;5.18;66.77;100701.97;5072822;28;20250;-72
2022/12/20 09:35:07;;;;;;;27.43;14.23;;;5.40;99.90;;;5.65;64.52;100690.13;5093160;28;20209;-71
2022/12/20 09:37:36;;;;;;;21.77;12.73;;;5.80;99.90;;;6.04;62.56;100694.28;5088294;28;20252;-71
2022/12/20 09:40:08;;;;;;;20.67;12.03;;;6.10;99.90;;;6.36;61.64;100691.38;5099126;28;20208;-73
2022/12/20 09:42:37;;;;;;;22.83;13.43;;;6.40;99.90;;;6.61;60.17;100688.34;5083499;28;20193;-77
2022/12/20 09:45:18;;;;;;;23.90;12.73;;;6.70;99.90;;;7.05;59.00;100688.13;5084186;28;20245;-76
2022/12/20 09:47:47;;;;;;;24.63;14.50;;;7.10;99.90;;;7.58;58.50;100675.06;5107379;28;20193;-75
2022/12/20 09:50:17;;;;;;;19.20;12.10;;;7.70;99.90;;;8.16;56.46;100673.06;5089940;28;20189;-75
2022/12/20 09:53:07;;;;;;;22.40;13.17;;;8.20;99.90;;;9.06;54.16;100684.84;5091328;28;20182;-74
2022/12/20 09:55:52;;;;;;;22.77;12.50;;;9.10;99.90;;;10.02;52.35;100685.13;5086126;28;20212;-74
2022/12/20 09:58:51;;;;;;;20.83;12.57;;;10.10;99.90;;;10.28;48.80;100692.03;5095165;28;20228;-75
2022/12/20 10:01:25;;;;;;;21.77;13.60;;;10.30;99.90;;;10.09;48.06;100688.56;5089269;28;20253;-73
2022/12/20 10:04:04;;;;;;;20.27;13.10;;;10.10;99.90;;;9.90;47.85;100692.81;5090905;28;20249;-75
2022/12/20 10:06:49;;;;;;;22.03;12.77;;;9.90;99.90;;;9.67;48.23;100688.47;5085214;28;20197;-75
2022/12/20 10:09:40;;;;;;;22.50;13.63;;;9.60;99.90;;;9.75;48.56;100680.75;5078833;28;20262;-74
2022/12/20 10:12:21;;;;;;;23.53;13.53;;;9.80;99.90;;;10.64;49.39;100678.22;5075217;28;20218;-81
2022/12/20 10:15:23;;;;;;;22.47;15.00;;;10.60;99.90;;;12.71;46.48;100674.50;5071030;28;20209;-77
2022/12/20 10:18:25;;;;;;;20.63;13.93;;;12.60;99.90;;;15.28;40.14;100672.28;5079797;28;20221;-75
2022/12/20 10:21:01;;;;;;;21.80;13.57;;;15.00;99.70;;;17.01;35.39;100663.78;5069397;28;20208;-75
2022/12/20 10:23:39;;;;;;;32.33;21.10;;;16.50;92.20;;;18.17;33.17;100664.59;5068857;28;20326;-70
2022/12/20 10:26:11;;;;;;;21.73;14.30;;;17.50;80.60;;;18.76;32.23;100659.09;5069412;28;20295;-71
2022/12/20 10:28:40;;;;;;;20.43;13.90;;;18.20;75.70;;;18.33;30.57;100663.16;5085531;28;20205;-71
2022/12/20 10:31:15;;;;;;;19.50;13.77;;;18.00;69.50;;;17.09;31.27;100666.16;5077573;28;20216;-73
2022/12/20 10:33:46;;;;;;;18.13;13.83;;;16.80;67.30;;;15.72;32.93;100665.28;5091462;28;20268;-72
2022/12/20 10:36:25;;;;;;;20.67;13.10;;;15.40;68.00;;;14.32;35.10;100670.59;5092328;28;20232;-73
2022/12/20 10:38:56;;;;;;;21.57;14.93;;;14.10;70.50;;;13.24;36.92;100660.09;5092293;28;20302;-72
2022/12/20 10:41:28;;;;;;;22.37;15.33;;;13.00;73.10;;;12.32;38.45;100664.50;5091983;28;20240;-73
2022/12/20 10:44:01;;;;;;;20.57;13.93;;;12.10;75.60;;;11.58;40.29;100661.56;5092502;28;20227;-71
2022/12/20 10:46:41;;;;;;;22.33;14.77;;;11.40;78.50;;;10.88;41.86;100659.28;5092271;28;20185;-71
2022/12/20 10:49:31;;;;;;;21.70;14.70;;;10.70;80.90;;;10.26;42.62;100660.25;5087854;28;20193;-70
2022/12/20 10:52:04;;;;;;;25.27;14.90;;;10.00;83.00;;;9.82;44.36;100658.47;5092950;28;20201;-73